PWSweather.com
Personal Weather Stations
Station Observations
KWABLAIN13
Ptl Weather, Blaine, WA

Ptl WeatherBlaine, WA

Lat: 48.997393, Lon: -122.748614

Elevation: 57

Station Type: Davis Advantage Pro 2

http://www.ptlnet.net

High Low Average
Temperature 48.6°F9.2°C 38.1°F3.4°C 45.1°F7.3°C
Dew Point 46.6°F8.1°C 36.5°F2.5°C 41.5°F5.3°C
Winds 17.0 mph 27.4 kmh Calm Calm 5.0 mph S8.0 kmh S
Wind Gusts 21.0 mph33.8 kmh -- 8.0 mph12.9 kmh
Humidity 97% 78% 87%
Pressure 30.16 in1021.3 mb 29.77 in1008.1 mb -
Precipitation 0.00 in0.0 mm - -
Hour Temp Dew Point Humidity Winds Wind Gusts Pressure Precip Precip Rate Daily Precip Total
12:05 AM 43.5°F6.4°C 42.2°F5.7°C 95% Calm Calm 3.0 mph4.8 kmh 29.77 in1008.1 mb 0.01 in0.3 mm 0.12 in3.0 mm 0.01 in0.3 mm
12:10 AM 43.6°F6.4°C 42.3°F5.7°C 95% 1.0 mph ENE1.6 kmh ENE 3.0 mph4.8 kmh 29.77 in1008.1 mb 0.01 in0.3 mm 0.00 in0.0 mm 0.01 in0.3 mm
12:25 AM 43.6°F6.4°C 42.3°F5.7°C 95% 5.0 mph NE8.0 kmh NE 6.0 mph9.7 kmh 29.77 in1008.1 mb 0.00 in0.0 mm 0.00 in0.0 mm 0.01 in0.3 mm
12:30 AM 43.6°F6.4°C 42.3°F5.7°C 95% 1.0 mph ENE1.6 kmh ENE 6.0 mph9.7 kmh 29.77 in1008.1 mb 0.00 in0.0 mm 0.00 in0.0 mm 0.01 in0.3 mm
12:45 AM 43.6°F6.4°C 42.3°F5.7°C 95% 3.0 mph NE4.8 kmh NE 4.0 mph6.4 kmh 29.77 in1008.1 mb 0.00 in0.0 mm 0.00 in0.0 mm 0.01 in0.3 mm
12:50 AM 43.6°F6.4°C 42.3°F5.7°C 95% 2.0 mph ENE3.2 kmh ENE 4.0 mph6.4 kmh 29.77 in1008.1 mb 0.00 in0.0 mm 0.00 in0.0 mm 0.01 in0.3 mm
01:04 AM 43.7°F6.5°C 42.4°F5.8°C 95% 2.0 mph SSE3.2 kmh SSE 4.0 mph6.4 kmh 29.78 in1008.5 mb 0.00 in0.0 mm 0.00 in0.0 mm 0.01 in0.3 mm
01:10 AM 43.8°F6.6°C 42.7°F5.9°C 96% 2.0 mph SSE3.2 kmh SSE 4.0 mph6.4 kmh 29.77 in1008.1 mb 0.00 in0.0 mm 0.00 in0.0 mm 0.01 in0.3 mm
01:25 AM 43.9°F6.6°C 42.8°F6.0°C 96% 4.0 mph SE6.4 kmh SE 5.0 mph8.0 kmh 29.79 in1008.8 mb 0.00 in0.0 mm 0.00 in0.0 mm 0.01 in0.3 mm
01:30 AM 44.0°F6.7°C 42.7°F5.9°C 95% 4.0 mph ESE6.4 kmh ESE 7.0 mph11.3 kmh 29.79 in1008.8 mb 0.00 in0.0 mm 0.00 in0.0 mm 0.01 in0.3 mm
01:45 AM 44.0°F6.7°C 42.7°F5.9°C 95% 1.0 mph ENE1.6 kmh ENE 4.0 mph6.4 kmh 29.78 in1008.5 mb 0.01 in0.3 mm 0.04 in1.0 mm 0.02 in0.5 mm
01:49 AM 44.0°F6.7°C 42.7°F5.9°C 95% 5.0 mph ESE8.0 kmh ESE 7.0 mph11.3 kmh 29.79 in1008.8 mb 0.01 in0.3 mm 0.00 in0.0 mm 0.02 in0.5 mm
02:04 AM 44.3°F6.8°C 43.2°F6.2°C 96% Calm Calm 6.0 mph9.7 kmh 29.80 in1009.1 mb 0.01 in0.3 mm 0.00 in0.0 mm 0.02 in0.5 mm
02:10 AM 45.0°F7.2°C 43.9°F6.6°C 96% 2.0 mph SSE3.2 kmh SSE 13.0 mph20.9 kmh 29.80 in1009.1 mb 0.01 in0.3 mm 0.00 in0.0 mm 0.02 in0.5 mm
02:25 AM 47.2°F8.4°C 46.4°F8.0°C 97% 4.0 mph SSE6.4 kmh SSE 11.0 mph17.7 kmh 29.82 in1009.8 mb 0.01 in0.3 mm 0.00 in0.0 mm 0.02 in0.5 mm
02:29 AM 47.6°F8.7°C 46.5°F8.1°C 96% 3.0 mph S4.8 kmh S 21.0 mph33.8 kmh 29.83 in1010.2 mb 0.01 in0.3 mm 0.00 in0.0 mm 0.02 in0.5 mm
02:45 AM 48.2°F9.0°C 46.6°F8.1°C 94% 7.0 mph S11.3 kmh S 18.0 mph29.0 kmh 29.83 in1010.2 mb 0.00 in0.0 mm 0.00 in0.0 mm 0.02 in0.5 mm
02:50 AM 48.2°F9.0°C 46.3°F7.9°C 93% 7.0 mph SW11.3 kmh SW 8.0 mph12.9 kmh 29.83 in1010.2 mb 0.00 in0.0 mm 0.00 in0.0 mm 0.02 in0.5 mm
03:05 AM 48.1°F8.9°C 46.2°F7.9°C 93% 7.0 mph SE11.3 kmh SE 12.0 mph19.3 kmh 29.84 in1010.5 mb 0.00 in0.0 mm 0.00 in0.0 mm 0.02 in0.5 mm
03:10 AM 48.1°F8.9°C 46.2°F7.9°C 93% 8.0 mph SSE12.9 kmh SSE 8.0 mph12.9 kmh 29.85 in1010.8 mb 0.00 in0.0 mm 0.00 in0.0 mm 0.02 in0.5 mm
03:25 AM 47.9°F8.8°C 45.7°F7.6°C 92% 7.0 mph S11.3 kmh S 10.0 mph16.1 kmh 29.85 in1010.8 mb 0.00 in0.0 mm 0.00 in0.0 mm 0.02 in0.5 mm
03:30 AM 47.8°F8.8°C 45.6°F7.6°C 92% 9.0 mph SE14.5 kmh SE 9.0 mph14.5 kmh 29.85 in1010.8 mb 0.00 in0.0 mm 0.00 in0.0 mm 0.02 in0.5 mm
03:45 AM 47.5°F8.6°C 45.3°F7.4°C 92% 3.0 mph S4.8 kmh S 8.0 mph12.9 kmh 29.87 in1011.5 mb 0.00 in0.0 mm 0.00 in0.0 mm 0.02 in0.5 mm
03:50 AM 47.4°F8.6°C 45.2°F7.3°C 92% 4.0 mph SSE6.4 kmh SSE 8.0 mph12.9 kmh 29.87 in1011.5 mb 0.00 in0.0 mm 0.00 in0.0 mm 0.02 in0.5 mm
04:05 AM 46.9°F8.3°C 44.7°F7.1°C 92% 6.0 mph SSE9.7 kmh SSE 7.0 mph11.3 kmh 29.88 in1011.9 mb 0.00 in0.0 mm 0.00 in0.0 mm 0.02 in0.5 mm
04:10 AM 46.8°F8.2°C 44.6°F7.0°C 92% 5.0 mph SE8.0 kmh SE 9.0 mph14.5 kmh 29.88 in1011.9 mb 0.00 in0.0 mm 0.00 in0.0 mm 0.02 in0.5 mm
04:25 AM 46.7°F8.2°C 43.3°F6.3°C 88% 6.0 mph SSW9.7 kmh SSW 12.0 mph19.3 kmh 29.89 in1012.2 mb 0.00 in0.0 mm 0.00 in0.0 mm 0.02 in0.5 mm
04:30 AM 46.9°F8.3°C 42.9°F6.1°C 86% 8.0 mph SW12.9 kmh SW 12.0 mph19.3 kmh 29.89 in1012.2 mb 0.00 in0.0 mm 0.00 in0.0 mm 0.02 in0.5 mm
04:45 AM 47.4°F8.6°C 43.1°F6.2°C 85% 7.0 mph SW11.3 kmh SW 15.0 mph24.1 kmh 29.90 in1012.5 mb 0.00 in0.0 mm 0.00 in0.0 mm 0.02 in0.5 mm
04:50 AM 47.4°F8.6°C 42.8°F6.0°C 84% 6.0 mph SW9.7 kmh SW 15.0 mph24.1 kmh 29.90 in1012.5 mb 0.00 in0.0 mm 0.00 in0.0 mm 0.02 in0.5 mm
05:05 AM 47.7°F8.7°C 42.5°F5.8°C 82% 10.0 mph SW16.1 kmh SW 17.0 mph27.4 kmh 29.90 in1012.5 mb 0.00 in0.0 mm 0.00 in0.0 mm 0.02 in0.5 mm
05:10 AM 47.7°F8.7°C 42.5°F5.8°C 82% 6.0 mph SW9.7 kmh SW 17.0 mph27.4 kmh 29.90 in1012.5 mb 0.00 in0.0 mm 0.00 in0.0 mm 0.02 in0.5 mm
05:25 AM 47.7°F8.7°C 42.2°F5.7°C 81% 10.0 mph SSW16.1 kmh SSW 14.0 mph22.5 kmh 29.91 in1012.9 mb 0.00 in0.0 mm 0.00 in0.0 mm 0.02 in0.5 mm
05:30 AM 47.9°F8.8°C 42.4°F5.8°C 81% 10.0 mph SW16.1 kmh SW 17.0 mph27.4 kmh 29.91 in1012.9 mb 0.00 in0.0 mm 0.00 in0.0 mm 0.02 in0.5 mm
05:45 AM 48.2°F9.0°C 42.7°F5.9°C 81% 4.0 mph SW6.4 kmh SW 15.0 mph24.1 kmh 29.93 in1013.5 mb 0.00 in0.0 mm 0.00 in0.0 mm 0.02 in0.5 mm
05:50 AM 48.0°F8.9°C 42.8°F6.0°C 82% 4.0 mph SW6.4 kmh SW 6.0 mph9.7 kmh 29.93 in1013.5 mb 0.00 in0.0 mm 0.00 in0.0 mm 0.02 in0.5 mm
06:04 AM 47.4°F8.6°C 42.2°F5.7°C 82% 10.0 mph SW16.1 kmh SW 13.0 mph20.9 kmh 29.93 in1013.5 mb 0.00 in0.0 mm 0.00 in0.0 mm 0.02 in0.5 mm
06:09 AM 47.6°F8.7°C 42.4°F5.8°C 82% 7.0 mph SW11.3 kmh SW 13.0 mph20.9 kmh 29.93 in1013.5 mb 0.00 in0.0 mm 0.00 in0.0 mm 0.02 in0.5 mm
06:25 AM 47.6°F8.7°C 42.4°F5.8°C 82% 9.0 mph SW14.5 kmh SW 10.0 mph16.1 kmh 29.94 in1013.9 mb 0.00 in0.0 mm 0.00 in0.0 mm 0.02 in0.5 mm
06:30 AM 47.5°F8.6°C 42.3°F5.7°C 82% 11.0 mph SW17.7 kmh SW 11.0 mph17.7 kmh 29.94 in1013.9 mb 0.00 in0.0 mm 0.00 in0.0 mm 0.02 in0.5 mm
06:45 AM 48.3°F9.1°C 42.1°F5.6°C 79% 13.0 mph SW20.9 kmh SW 21.0 mph33.8 kmh 29.95 in1014.2 mb 0.00 in0.0 mm 0.00 in0.0 mm 0.02 in0.5 mm
06:50 AM 48.3°F9.1°C 42.4°F5.8°C 80% 17.0 mph SW27.4 kmh SW 17.0 mph27.4 kmh 29.95 in1014.2 mb 0.00 in0.0 mm 0.00 in0.0 mm 0.02 in0.5 mm
07:04 AM 47.9°F8.8°C 42.4°F5.8°C 81% 12.0 mph SW19.3 kmh SW 18.0 mph29.0 kmh 29.95 in1014.2 mb 0.00 in0.0 mm 0.00 in0.0 mm 0.02 in0.5 mm
07:10 AM 48.0°F8.9°C 42.1°F5.6°C 80% 10.0 mph SW16.1 kmh SW 10.0 mph16.1 kmh 29.96 in1014.6 mb 0.00 in0.0 mm 0.00 in0.0 mm 0.02 in0.5 mm
07:25 AM 48.3°F9.1°C 42.1°F5.6°C 79% 12.0 mph SSW19.3 kmh SSW 16.0 mph25.7 kmh 29.97 in1014.9 mb 0.00 in0.0 mm 0.00 in0.0 mm 0.02 in0.5 mm
07:30 AM 48.3°F9.1°C 42.1°F5.6°C 79% 13.0 mph SSW20.9 kmh SSW 17.0 mph27.4 kmh 29.97 in1014.9 mb 0.00 in0.0 mm 0.00 in0.0 mm 0.02 in0.5 mm
07:44 AM 48.1°F8.9°C 41.9°F5.5°C 79% 10.0 mph SSW16.1 kmh SSW 16.0 mph25.7 kmh 29.98 in1015.2 mb 0.00 in0.0 mm 0.00 in0.0 mm 0.02 in0.5 mm
07:50 AM 48.1°F8.9°C 41.9°F5.5°C 79% 11.0 mph SW17.7 kmh SW 11.0 mph17.7 kmh 29.98 in1015.2 mb 0.00 in0.0 mm 0.00 in0.0 mm 0.02 in0.5 mm
08:05 AM 47.9°F8.8°C 42.0°F5.6°C 80% 9.0 mph SW14.5 kmh SW 19.0 mph30.6 kmh 29.99 in1015.6 mb 0.00 in0.0 mm 0.00 in0.0 mm 0.02 in0.5 mm
08:10 AM 47.9°F8.8°C 41.7°F5.4°C 79% 11.0 mph SSW17.7 kmh SSW 11.0 mph17.7 kmh 30.00 in1015.9 mb 0.00 in0.0 mm 0.00 in0.0 mm 0.02 in0.5 mm
08:25 AM 48.3°F9.1°C 41.8°F5.4°C 78% 10.0 mph SSW16.1 kmh SSW 16.0 mph25.7 kmh 30.00 in1015.9 mb 0.00 in0.0 mm 0.00 in0.0 mm 0.02 in0.5 mm
08:30 AM 48.3°F9.1°C 42.1°F5.6°C 79% 6.0 mph SW9.7 kmh SW 16.0 mph25.7 kmh 30.00 in1015.9 mb 0.00 in0.0 mm 0.00 in0.0 mm 0.02 in0.5 mm
08:45 AM 47.8°F8.8°C 42.3°F5.7°C 81% 5.0 mph SW8.0 kmh SW 13.0 mph20.9 kmh 30.02 in1016.6 mb 0.00 in0.0 mm 0.00 in0.0 mm 0.02 in0.5 mm
08:50 AM 47.6°F8.7°C 42.4°F5.8°C 82% 7.0 mph SSW11.3 kmh SSW 7.0 mph11.3 kmh 30.02 in1016.6 mb 0.00 in0.0 mm 0.00 in0.0 mm 0.02 in0.5 mm
09:05 AM 47.2°F8.4°C 42.0°F5.6°C 82% 3.0 mph S4.8 kmh S 6.0 mph9.7 kmh 30.03 in1016.9 mb 0.00 in0.0 mm 0.00 in0.0 mm 0.02 in0.5 mm
09:10 AM 47.0°F8.3°C 41.8°F5.4°C 82% 4.0 mph S6.4 kmh S 5.0 mph8.0 kmh 30.03 in1016.9 mb 0.00 in0.0 mm 0.00 in0.0 mm 0.02 in0.5 mm
09:25 AM 47.2°F8.4°C 42.0°F5.6°C 82% 5.0 mph SSE8.0 kmh SSE 8.0 mph12.9 kmh 30.03 in1016.9 mb 0.00 in0.0 mm 0.00 in0.0 mm 0.02 in0.5 mm
09:30 AM 47.2°F8.4°C 42.3°F5.7°C 83% 2.0 mph SSE3.2 kmh SSE 8.0 mph12.9 kmh 30.04 in1017.3 mb 0.00 in0.0 mm 0.00 in0.0 mm 0.02 in0.5 mm
09:45 AM 46.9°F8.3°C 42.6°F5.9°C 85% 2.0 mph S3.2 kmh S 7.0 mph11.3 kmh 30.05 in1017.6 mb 0.00 in0.0 mm 0.00 in0.0 mm 0.02 in0.5 mm
09:50 AM 46.9°F8.3°C 42.6°F5.9°C 85% 4.0 mph SSW6.4 kmh SSW 5.0 mph8.0 kmh 30.05 in1017.6 mb 0.00 in0.0 mm 0.00 in0.0 mm 0.02 in0.5 mm
10:04 AM 47.4°F8.6°C 41.9°F5.5°C 81% 5.0 mph S8.0 kmh S 9.0 mph14.5 kmh 30.06 in1017.9 mb 0.00 in0.0 mm 0.00 in0.0 mm 0.02 in0.5 mm
10:09 AM 47.6°F8.7°C 42.1°F5.6°C 81% 4.0 mph S6.4 kmh S 9.0 mph14.5 kmh 30.06 in1017.9 mb 0.00 in0.0 mm 0.00 in0.0 mm 0.02 in0.5 mm
10:25 AM 48.0°F8.9°C 42.5°F5.8°C 81% 8.0 mph SSW12.9 kmh SSW 9.0 mph14.5 kmh 30.06 in1017.9 mb 0.00 in0.0 mm 0.00 in0.0 mm 0.02 in0.5 mm
10:29 AM 48.1°F8.9°C 42.6°F5.9°C 81% 6.0 mph S9.7 kmh S 9.0 mph14.5 kmh 30.06 in1017.9 mb 0.00 in0.0 mm 0.00 in0.0 mm 0.02 in0.5 mm
10:45 AM 48.1°F8.9°C 42.9°F6.1°C 82% 4.0 mph SE6.4 kmh SE 10.0 mph16.1 kmh 30.07 in1018.3 mb 0.00 in0.0 mm 0.00 in0.0 mm 0.02 in0.5 mm
10:50 AM 48.2°F9.0°C 43.3°F6.3°C 83% 5.0 mph SSE8.0 kmh SSE 10.0 mph16.1 kmh 30.06 in1017.9 mb 0.00 in0.0 mm 0.00 in0.0 mm 0.02 in0.5 mm
11:05 AM 48.3°F9.1°C 43.1°F6.2°C 82% 5.0 mph SSW8.0 kmh SSW 14.0 mph22.5 kmh 30.06 in1017.9 mb 0.00 in0.0 mm 0.00 in0.0 mm 0.02 in0.5 mm
11:10 AM 48.4°F9.1°C 43.2°F6.2°C 82% 3.0 mph S4.8 kmh S 14.0 mph22.5 kmh 30.07 in1018.3 mb 0.00 in0.0 mm 0.00 in0.0 mm 0.02 in0.5 mm
11:25 AM 48.6°F9.2°C 42.7°F5.9°C 80% 8.0 mph SSW12.9 kmh SSW 14.0 mph22.5 kmh 30.07 in1018.3 mb 0.00 in0.0 mm 0.00 in0.0 mm 0.02 in0.5 mm
11:29 AM 48.6°F9.2°C 42.7°F5.9°C 80% 6.0 mph S9.7 kmh S 14.0 mph22.5 kmh 30.07 in1018.3 mb 0.00 in0.0 mm 0.00 in0.0 mm 0.02 in0.5 mm
11:44 AM 48.4°F9.1°C 43.5°F6.4°C 83% 4.0 mph S6.4 kmh S 9.0 mph14.5 kmh 30.08 in1018.6 mb 0.00 in0.0 mm 0.00 in0.0 mm 0.02 in0.5 mm
11:50 AM 48.2°F9.0°C 43.6°F6.4°C 84% 2.0 mph S3.2 kmh S 12.0 mph19.3 kmh 30.08 in1018.6 mb 0.00 in0.0 mm 0.00 in0.0 mm 0.02 in0.5 mm
12:05 PM 47.4°F8.6°C 43.7°F6.5°C 87% 2.0 mph S3.2 kmh S 4.0 mph6.4 kmh 30.08 in1018.6 mb 0.02 in0.5 mm 0.03 in0.8 mm 0.04 in1.0 mm
12:10 PM 47.1°F8.4°C 43.4°F6.3°C 87% 4.0 mph SSW6.4 kmh SSW 6.0 mph9.7 kmh 30.08 in1018.6 mb 0.02 in0.5 mm 0.00 in0.0 mm 0.04 in1.0 mm
12:25 PM 46.7°F8.2°C 43.6°F6.4°C 89% 10.0 mph SSW16.1 kmh SSW 10.0 mph16.1 kmh 30.08 in1018.6 mb 0.02 in0.5 mm 0.00 in0.0 mm 0.04 in1.0 mm
12:30 PM 46.5°F8.1°C 43.4°F6.3°C 89% 5.0 mph SW8.0 kmh SW 12.0 mph19.3 kmh 30.09 in1019.0 mb 0.02 in0.5 mm 0.00 in0.0 mm 0.04 in1.0 mm
12:44 PM 46.0°F7.8°C 42.1°F5.6°C 86% 5.0 mph WSW8.0 kmh WSW 14.0 mph22.5 kmh 30.08 in1018.6 mb 0.04 in1.0 mm 0.09 in2.3 mm 0.06 in1.5 mm
12:50 PM 45.5°F7.5°C 42.2°F5.7°C 88% 5.0 mph SW8.0 kmh SW 14.0 mph22.5 kmh 30.08 in1018.6 mb 0.04 in1.0 mm 0.00 in0.0 mm 0.06 in1.5 mm
01:05 PM 45.6°F7.6°C 42.0°F5.6°C 87% 9.0 mph SSW14.5 kmh SSW 11.0 mph17.7 kmh 30.08 in1018.6 mb 0.03 in0.8 mm 0.00 in0.0 mm 0.06 in1.5 mm
01:10 PM 45.6°F7.6°C 41.7°F5.4°C 86% 5.0 mph SW8.0 kmh SW 12.0 mph19.3 kmh 30.08 in1018.6 mb 0.03 in0.8 mm 0.00 in0.0 mm 0.06 in1.5 mm
01:24 PM 45.8°F7.7°C 42.2°F5.7°C 87% 7.0 mph SSW11.3 kmh SSW 11.0 mph17.7 kmh 30.08 in1018.6 mb 0.02 in0.5 mm 0.00 in0.0 mm 0.06 in1.5 mm
01:30 PM 46.2°F7.9°C 42.3°F5.7°C 86% 5.0 mph SSW8.0 kmh SSW 13.0 mph20.9 kmh 30.08 in1018.6 mb 0.02 in0.5 mm 0.00 in0.0 mm 0.06 in1.5 mm
01:45 PM 46.7°F8.2°C 41.5°F5.3°C 82% 6.0 mph SW9.7 kmh SW 11.0 mph17.7 kmh 30.08 in1018.6 mb 0.00 in0.0 mm 0.00 in0.0 mm 0.06 in1.5 mm
01:50 PM 46.7°F8.2°C 41.8°F5.4°C 83% 4.0 mph SW6.4 kmh SW 4.0 mph6.4 kmh 30.08 in1018.6 mb 0.00 in0.0 mm 0.00 in0.0 mm 0.06 in1.5 mm
02:05 PM 46.4°F8.0°C 41.2°F5.1°C 82% 4.0 mph SSW6.4 kmh SSW 10.0 mph16.1 kmh 30.09 in1019.0 mb 0.00 in0.0 mm 0.00 in0.0 mm 0.06 in1.5 mm
02:10 PM 46.5°F8.1°C 41.6°F5.3°C 83% 7.0 mph SSW11.3 kmh SSW 7.0 mph11.3 kmh 30.09 in1019.0 mb 0.00 in0.0 mm 0.00 in0.0 mm 0.06 in1.5 mm
02:25 PM 46.2°F7.9°C 42.0°F5.6°C 85% 6.0 mph S9.7 kmh S 10.0 mph16.1 kmh 30.10 in1019.3 mb 0.00 in0.0 mm 0.00 in0.0 mm 0.06 in1.5 mm
02:30 PM 46.2°F7.9°C 42.3°F5.7°C 86% 9.0 mph SSW14.5 kmh SSW 9.0 mph14.5 kmh 30.11 in1019.6 mb 0.00 in0.0 mm 0.00 in0.0 mm 0.06 in1.5 mm
02:44 PM 46.3°F7.9°C 41.7°F5.4°C 84% 7.0 mph SW11.3 kmh SW 13.0 mph20.9 kmh 30.11 in1019.6 mb 0.00 in0.0 mm 0.00 in0.0 mm 0.06 in1.5 mm
02:50 PM 46.4°F8.0°C 41.8°F5.4°C 84% 7.0 mph SW11.3 kmh SW 8.0 mph12.9 kmh 30.11 in1019.6 mb 0.00 in0.0 mm 0.00 in0.0 mm 0.06 in1.5 mm
03:05 PM 46.9°F8.3°C 41.7°F5.4°C 82% 11.0 mph SW17.7 kmh SW 16.0 mph25.7 kmh 30.11 in1019.6 mb 0.00 in0.0 mm 0.00 in0.0 mm 0.06 in1.5 mm
03:10 PM 47.0°F8.3°C 41.8°F5.4°C 82% 4.0 mph SSW6.4 kmh SSW 16.0 mph25.7 kmh 30.11 in1019.6 mb 0.00 in0.0 mm 0.00 in0.0 mm 0.06 in1.5 mm
03:25 PM 47.3°F8.5°C 41.5°F5.3°C 80% 9.0 mph SSW14.5 kmh SSW 11.0 mph17.7 kmh 30.12 in1020.0 mb 0.00 in0.0 mm 0.00 in0.0 mm 0.06 in1.5 mm
03:30 PM 47.3°F8.5°C 41.1°F5.1°C 79% 5.0 mph SW8.0 kmh SW 12.0 mph19.3 kmh 30.11 in1019.6 mb 0.00 in0.0 mm 0.00 in0.0 mm 0.06 in1.5 mm
03:45 PM 47.4°F8.6°C 41.6°F5.3°C 80% 8.0 mph SW12.9 kmh SW 10.0 mph16.1 kmh 30.12 in1020.0 mb 0.00 in0.0 mm 0.00 in0.0 mm 0.06 in1.5 mm
03:50 PM 47.3°F8.5°C 41.5°F5.3°C 80% 11.0 mph SW17.7 kmh SW 11.0 mph17.7 kmh 30.13 in1020.3 mb 0.00 in0.0 mm 0.00 in0.0 mm 0.06 in1.5 mm
04:04 PM 47.2°F8.4°C 41.7°F5.4°C 81% 5.0 mph SSW8.0 kmh SSW 9.0 mph14.5 kmh 30.14 in1020.7 mb 0.00 in0.0 mm 0.00 in0.0 mm 0.06 in1.5 mm
04:10 PM 47.0°F8.3°C 41.8°F5.4°C 82% 7.0 mph SW11.3 kmh SW 8.0 mph12.9 kmh 30.14 in1020.7 mb 0.00 in0.0 mm 0.00 in0.0 mm 0.06 in1.5 mm
04:25 PM 46.6°F8.1°C 41.7°F5.4°C 83% 5.0 mph SSW8.0 kmh SSW 5.0 mph8.0 kmh 30.13 in1020.3 mb 0.00 in0.0 mm 0.00 in0.0 mm 0.06 in1.5 mm
04:29 PM 46.6°F8.1°C 42.0°F5.6°C 84% 4.0 mph SW6.4 kmh SW 5.0 mph8.0 kmh 30.13 in1020.3 mb 0.00 in0.0 mm 0.00 in0.0 mm 0.06 in1.5 mm
04:44 PM 46.0°F7.8°C 41.4°F5.2°C 84% 4.0 mph SW6.4 kmh SW 6.0 mph9.7 kmh 30.14 in1020.7 mb 0.00 in0.0 mm 0.00 in0.0 mm 0.06 in1.5 mm
04:50 PM 45.8°F7.7°C 41.3°F5.2°C 84% 2.0 mph WSW3.2 kmh WSW 6.0 mph9.7 kmh 30.13 in1020.3 mb 0.00 in0.0 mm 0.00 in0.0 mm 0.06 in1.5 mm
05:05 PM 45.1°F7.3°C 40.6°F4.8°C 84% 3.0 mph SW4.8 kmh SW 5.0 mph8.0 kmh 30.14 in1020.7 mb 0.00 in0.0 mm 0.00 in0.0 mm 0.06 in1.5 mm
05:10 PM 44.9°F7.2°C 40.4°F4.7°C 84% 6.0 mph SW9.7 kmh SW 6.0 mph9.7 kmh 30.14 in1020.7 mb 0.00 in0.0 mm 0.00 in0.0 mm 0.06 in1.5 mm
05:25 PM 44.7°F7.1°C 40.8°F4.9°C 86% 1.0 mph SSW1.6 kmh SSW 5.0 mph8.0 kmh 30.14 in1020.7 mb 0.00 in0.0 mm 0.00 in0.0 mm 0.06 in1.5 mm
05:30 PM 44.6°F7.0°C 41.0°F5.0°C 87% 3.0 mph SSW4.8 kmh SSW 5.0 mph8.0 kmh 30.14 in1020.7 mb 0.00 in0.0 mm 0.00 in0.0 mm 0.06 in1.5 mm
05:45 PM 44.3°F6.8°C 41.0°F5.0°C 88% 2.0 mph SSW3.2 kmh SSW 3.0 mph4.8 kmh 30.13 in1020.3 mb 0.00 in0.0 mm 0.00 in0.0 mm 0.06 in1.5 mm
05:50 PM 44.1°F6.7°C 40.8°F4.9°C 88% Calm Calm -- 30.13 in1020.3 mb 0.00 in0.0 mm 0.00 in0.0 mm 0.06 in1.5 mm
06:05 PM 43.0°F6.1°C 40.0°F4.4°C 89% 2.0 mph SSW3.2 kmh SSW 2.0 mph3.2 kmh 30.13 in1020.3 mb 0.00 in0.0 mm 0.00 in0.0 mm 0.06 in1.5 mm
06:10 PM 42.7°F5.9°C 39.7°F4.3°C 89% 3.0 mph SSW4.8 kmh SSW 3.0 mph4.8 kmh 30.13 in1020.3 mb 0.00 in0.0 mm 0.00 in0.0 mm 0.06 in1.5 mm
06:25 PM 42.0°F5.6°C 39.6°F4.2°C 91% 2.0 mph SE3.2 kmh SE 3.0 mph4.8 kmh 30.14 in1020.7 mb 0.00 in0.0 mm 0.00 in0.0 mm 0.06 in1.5 mm
06:30 PM 42.0°F5.6°C 39.6°F4.2°C 91% 3.0 mph E4.8 kmh E 4.0 mph6.4 kmh 30.14 in1020.7 mb 0.00 in0.0 mm 0.00 in0.0 mm 0.06 in1.5 mm
06:45 PM 41.8°F5.4°C 39.7°F4.3°C 92% 1.0 mph NE1.6 kmh NE 4.0 mph6.4 kmh 30.14 in1020.7 mb 0.00 in0.0 mm 0.00 in0.0 mm 0.06 in1.5 mm
06:50 PM 41.6°F5.3°C 39.2°F4.0°C 91% 2.0 mph NE3.2 kmh NE 4.0 mph6.4 kmh 30.14 in1020.7 mb 0.00 in0.0 mm 0.00 in0.0 mm 0.06 in1.5 mm
07:05 PM 41.0°F5.0°C 38.9°F3.8°C 92% 2.0 mph SE3.2 kmh SE 3.0 mph4.8 kmh 30.14 in1020.7 mb 0.00 in0.0 mm 0.00 in0.0 mm 0.06 in1.5 mm
07:09 PM 40.9°F4.9°C 38.8°F3.8°C 92% Calm Calm 3.0 mph4.8 kmh 30.14 in1020.7 mb 0.00 in0.0 mm 0.00 in0.0 mm 0.06 in1.5 mm
07:25 PM 41.0°F5.0°C 39.1°F3.9°C 93% Calm Calm -- 30.15 in1021.0 mb 0.00 in0.0 mm 0.00 in0.0 mm 0.06 in1.5 mm
07:30 PM 41.1°F5.1°C 39.2°F4.0°C 93% Calm Calm -- 30.15 in1021.0 mb 0.00 in0.0 mm 0.00 in0.0 mm 0.06 in1.5 mm
07:45 PM 41.1°F5.1°C 39.0°F3.9°C 92% 3.0 mph SE4.8 kmh SE 3.0 mph4.8 kmh 30.14 in1020.7 mb 0.00 in0.0 mm 0.00 in0.0 mm 0.06 in1.5 mm
07:50 PM 41.1°F5.1°C 39.0°F3.9°C 92% 2.0 mph SE3.2 kmh SE 5.0 mph8.0 kmh 30.14 in1020.7 mb 0.00 in0.0 mm 0.00 in0.0 mm 0.06 in1.5 mm
08:05 PM 40.9°F4.9°C 38.8°F3.8°C 92% 2.0 mph SE3.2 kmh SE 4.0 mph6.4 kmh 30.14 in1020.7 mb 0.00 in0.0 mm 0.00 in0.0 mm 0.06 in1.5 mm
08:10 PM 40.8°F4.9°C 38.4°F3.6°C 91% 1.0 mph SE1.6 kmh SE 4.0 mph6.4 kmh 30.14 in1020.7 mb 0.00 in0.0 mm 0.00 in0.0 mm 0.06 in1.5 mm
08:25 PM 40.2°F4.6°C 38.1°F3.4°C 92% 5.0 mph SE8.0 kmh SE 5.0 mph8.0 kmh 30.14 in1020.7 mb 0.00 in0.0 mm 0.00 in0.0 mm 0.06 in1.5 mm
08:30 PM 40.2°F4.6°C 38.1°F3.4°C 92% 3.0 mph SE4.8 kmh SE 5.0 mph8.0 kmh 30.14 in1020.7 mb 0.00 in0.0 mm 0.00 in0.0 mm 0.06 in1.5 mm
08:45 PM 40.4°F4.7°C 38.3°F3.5°C 92% 2.0 mph SE3.2 kmh SE 3.0 mph4.8 kmh 30.14 in1020.7 mb 0.00 in0.0 mm 0.00 in0.0 mm 0.06 in1.5 mm
08:49 PM 40.3°F4.6°C 38.2°F3.4°C 92% 2.0 mph SE3.2 kmh SE 3.0 mph4.8 kmh 30.14 in1020.7 mb 0.00 in0.0 mm 0.00 in0.0 mm 0.06 in1.5 mm
09:04 PM 40.1°F4.5°C 38.0°F3.3°C 92% 6.0 mph SE9.7 kmh SE 6.0 mph9.7 kmh 30.14 in1020.7 mb 0.00 in0.0 mm 0.00 in0.0 mm 0.06 in1.5 mm
09:09 PM 40.1°F4.5°C 38.0°F3.3°C 92% 3.0 mph SE4.8 kmh SE 3.0 mph4.8 kmh 30.14 in1020.7 mb 0.00 in0.0 mm 0.00 in0.0 mm 0.06 in1.5 mm
09:25 PM 39.9°F4.4°C 37.8°F3.2°C 92% 1.0 mph SE1.6 kmh SE 4.0 mph6.4 kmh 30.15 in1021.0 mb 0.00 in0.0 mm 0.00 in0.0 mm 0.06 in1.5 mm
09:29 PM 39.8°F4.3°C 38.0°F3.3°C 93% 2.0 mph SE3.2 kmh SE 4.0 mph6.4 kmh 30.15 in1021.0 mb 0.00 in0.0 mm 0.00 in0.0 mm 0.06 in1.5 mm
09:44 PM 39.7°F4.3°C 37.6°F3.1°C 92% 1.0 mph SE1.6 kmh SE 3.0 mph4.8 kmh 30.15 in1021.0 mb 0.00 in0.0 mm 0.00 in0.0 mm 0.06 in1.5 mm
09:50 PM 39.4°F4.1°C 37.3°F2.9°C 92% 1.0 mph SE1.6 kmh SE 3.0 mph4.8 kmh 30.15 in1021.0 mb 0.00 in0.0 mm 0.00 in0.0 mm 0.06 in1.5 mm
10:05 PM 39.0°F3.9°C 37.2°F2.9°C 93% 1.0 mph ESE1.6 kmh ESE 3.0 mph4.8 kmh 30.16 in1021.3 mb 0.00 in0.0 mm 0.00 in0.0 mm 0.06 in1.5 mm
10:10 PM 39.1°F3.9°C 37.3°F2.9°C 93% 1.0 mph ESE1.6 kmh ESE 3.0 mph4.8 kmh 30.16 in1021.3 mb 0.00 in0.0 mm 0.00 in0.0 mm 0.06 in1.5 mm
10:24 PM 38.7°F3.7°C 36.9°F2.7°C 93% Calm Calm 3.0 mph4.8 kmh 30.16 in1021.3 mb 0.00 in0.0 mm 0.00 in0.0 mm 0.06 in1.5 mm
10:29 PM 38.6°F3.7°C 36.8°F2.7°C 93% Calm Calm 3.0 mph4.8 kmh 30.16 in1021.3 mb 0.00 in0.0 mm 0.00 in0.0 mm 0.06 in1.5 mm
10:45 PM 38.6°F3.7°C 37.0°F2.8°C 94% 1.0 mph E1.6 kmh E 2.0 mph3.2 kmh 30.16 in1021.3 mb 0.00 in0.0 mm 0.00 in0.0 mm 0.06 in1.5 mm
10:50 PM 38.8°F3.8°C 37.2°F2.9°C 94% 3.0 mph N4.8 kmh N 6.0 mph9.7 kmh 30.16 in1021.3 mb 0.00 in0.0 mm 0.00 in0.0 mm 0.06 in1.5 mm
11:05 PM 38.8°F3.8°C 37.2°F2.9°C 94% Calm Calm 2.0 mph3.2 kmh 30.16 in1021.3 mb 0.00 in0.0 mm 0.00 in0.0 mm 0.06 in1.5 mm
11:10 PM 38.8°F3.8°C 37.2°F2.9°C 94% Calm Calm -- 30.15 in1021.0 mb 0.00 in0.0 mm 0.00 in0.0 mm 0.06 in1.5 mm
11:25 PM 38.2°F3.4°C 36.6°F2.6°C 94% 1.0 mph NE1.6 kmh NE 4.0 mph6.4 kmh 30.16 in1021.3 mb 0.00 in0.0 mm 0.00 in0.0 mm 0.06 in1.5 mm
11:30 PM 38.1°F3.4°C 36.5°F2.5°C 94% 2.0 mph NE3.2 kmh NE 4.0 mph6.4 kmh 30.16 in1021.3 mb 0.00 in0.0 mm 0.00 in0.0 mm 0.06 in1.5 mm
11:45 PM 38.3°F3.5°C 37.0°F2.8°C 95% Calm Calm -- 30.16 in1021.3 mb 0.00 in0.0 mm 0.00 in0.0 mm 0.06 in1.5 mm
11:50 PM 38.4°F3.6°C 37.1°F2.8°C 95% Calm Calm -- 30.16 in1021.3 mb 0.00 in0.0 mm 0.00 in0.0 mm 0.06 in1.5 mm